Time;durP1;ratioP1;P1;durP2;ratioP2;P2;SDS_P1;SDS_P2;PMS_P1;PMS_P2;Temp;Humidity;BMP_temperature;BMP_pressure;BME280_temperature;BME280_humidity;BME280_pressure;Samples;Min_cycle;Max_cycle;Signal;HPM_P1;HPM_P2
2023/10/17 00:02:06;;;;;;;3.27;1.60;;;;;;;17.44;47.85;102191.19;5091938;28;20114;-71
2023/10/17 00:04:33;;;;;;;7.53;1.92;;;;;;;17.25;48.00;102195.91;5075365;28;20556;-71
2023/10/17 00:06:58;;;;;;;4.73;2.20;;;;;;;17.30;47.92;102193.19;5080483;28;20028;-71
2023/10/17 00:09:32;;;;;;;4.77;1.80;;;;;;;16.89;48.51;102197.38;5090793;28;20028;-72
2023/10/17 00:11:58;;;;;;;6.67;2.00;;;;;;;16.77;49.04;102187.81;5092879;28;20020;-71
2023/10/17 00:14:27;;;;;;;3.80;1.90;;;;;;;16.00;50.53;102187.03;5075648;28;20028;-71
2023/10/17 00:16:54;;;;;;;3.60;1.70;;;;;;;16.67;49.42;102192.34;5093837;28;20031;-71
2023/10/17 00:19:25;;;;;;;5.30;2.00;;;;;;;16.86;48.87;102177.13;5095803;28;20028;-71
2023/10/17 00:21:51;;;;;;;4.40;1.60;;;;;;;16.47;49.54;102171.50;5094850;28;20528;-71
2023/10/17 00:24:19;;;;;;;6.93;2.27;;;;;;;17.21;48.35;102169.56;5096087;28;20110;-71
2023/10/17 00:26:47;;;;;;;3.60;2.20;;;;;;;16.96;48.49;102162.91;5076977;28;20027;-71
2023/10/17 00:29:13;;;;;;;4.47;1.97;;;;;;;16.60;49.02;102174.84;5086101;28;20036;-71
2023/10/17 00:31:40;;;;;;;4.73;2.00;;;;;;;16.71;48.89;102177.34;5092178;28;20417;-71
2023/10/17 00:34:15;;;;;;;2.27;1.87;;;;;;;17.15;47.98;102169.69;5074529;28;20031;-71
2023/10/17 00:36:48;;;;;;;3.90;2.03;;;;;;;17.15;48.45;102165.25;5074799;28;20120;-71
2023/10/17 00:39:31;;;;;;;9.27;2.25;;;;;;;16.67;48.93;102168.59;5092021;28;20505;-71
2023/10/17 00:44:32;;;;;;;3.90;2.63;;;;;;;16.36;49.61;102152.31;5093822;28;20085;-71
2023/10/17 00:47:01;;;;;;;2.33;1.60;;;;;;;16.43;49.59;102157.50;5073707;28;20073;-71
2023/10/17 00:49:29;;;;;;;8.50;2.10;;;;;;;16.64;48.99;102160.72;5089076;28;20038;-71
2023/10/17 00:51:59;;;;;;;4.03;2.17;;;;;;;17.02;48.74;102151.38;5094319;28;20394;-72
2023/10/17 00:54:26;;;;;;;4.57;1.90;;;;;;;16.72;49.00;102158.84;5094721;28;20038;-71
2023/10/17 00:56:56;;;;;;;4.87;2.83;;;;;;;16.56;49.25;102158.19;5094620;28;20019;-71
2023/10/17 00:59:25;;;;;;;14.93;2.40;;;;;;;16.61;49.95;102160.78;5094531;28;20028;-71
2023/10/17 01:01:51;;;;;;;3.20;1.77;;;;;;;16.57;49.27;102159.06;5085468;28;20028;-71
2023/10/17 01:04:19;;;;;;;2.47;1.80;;;;;;;16.66;49.74;102151.00;5087503;28;20024;-71
2023/10/17 01:06:45;;;;;;;4.67;1.97;;;;;;;16.96;48.83;102151.47;5095307;28;20058;-71
2023/10/17 01:09:24;;;;;;;2.10;1.53;;;;;;;16.88;48.86;102151.53;5092071;28;20038;-71
2023/10/17 01:11:49;;;;;;;2.97;2.03;;;;;;;16.95;48.27;102144.44;5075039;28;20379;-71
2023/10/17 01:14:24;;;;;;;4.10;2.43;;;;;;;17.25;48.00;102144.84;5074097;28;20114;-71
2023/10/17 01:16:53;;;;;;;6.37;1.90;;;;;;;17.35;48.25;102143.78;5074493;28;20020;-71
2023/10/17 01:19:20;;;;;;;2.60;2.07;;;;;;;17.60;46.97;102144.19;5074520;28;20031;-71
2023/10/17 01:21:46;;;;;;;4.20;1.70;;;;;;;17.30;47.82;102133.28;5074104;28;20375;-71
2023/10/17 01:24:12;;;;;;;3.70;1.60;;;;;;;17.12;47.67;102137.13;5074180;28;20031;-71
2023/10/17 01:26:38;;;;;;;5.50;1.37;;;;;;;17.55;47.83;102129.34;5075207;28;20020;-71
2023/10/17 01:29:04;;;;;;;5.57;1.90;;;;;;;17.69;47.24;102122.00;5073438;28;20466;-71
2023/10/17 01:31:31;;;;;;;7.03;2.07;;;;;;;18.03;46.52;102116.06;5073505;28;20012;-71
2023/10/17 01:33:59;;;;;;;3.97;2.23;;;;;;;17.87;47.15;102119.91;5089489;28;20470;-71
2023/10/17 01:36:25;;;;;;;3.13;1.77;;;;;;;17.58;47.00;102122.19;5079691;28;20024;-71
2023/10/17 01:38:52;;;;;;;3.07;1.70;;;;;;;17.01;47.20;102117.03;5074069;28;20440;-71
2023/10/17 01:41:18;;;;;;;8.57;2.37;;;;;;;17.65;46.76;102120.31;5073182;28;20044;-71
2023/10/17 01:43:47;;;;;;;5.87;1.87;;;;;;;17.50;47.13;102117.97;5082408;28;20082;-71
2023/10/17 01:46:21;;;;;;;3.47;1.77;;;;;;;17.97;46.45;102114.41;5071813;28;20391;-71
2023/10/17 01:48:48;;;;;;;2.07;1.43;;;;;;;17.51;47.29;102112.66;5069875;28;20111;-71
2023/10/17 01:51:14;;;;;;;1.80;1.50;;;;;;;17.71;46.68;102104.34;5069321;28;20094;-71
2023/10/17 01:53:40;;;;;;;1.70;1.43;;;;;;;17.45;48.09;102100.41;5085045;28;20020;-71
2023/10/17 01:56:13;;;;;;;3.53;1.83;;;;;;;17.71;46.75;102096.41;5090481;28;20390;-71
2023/10/17 01:58:38;;;;;;;2.22;1.77;;;;;;;17.79;47.11;102107.72;5089345;28;20055;-71
2023/10/17 02:01:10;;;;;;;5.27;2.00;;;;;;;17.97;46.49;102103.84;5076421;28;20115;-71
2023/10/17 02:03:36;;;;;;;6.63;2.35;;;;;;;17.63;46.20;102106.25;5076320;28;20111;-71
2023/10/17 02:06:02;;;;;;;5.33;1.83;;;;;;;17.03;47.82;102089.72;5087028;28;20115;-71
2023/10/17 02:08:27;;;;;;;1.60;1.43;;;;;;;17.32;46.81;102096.25;5069884;28;20486;-71
2023/10/17 02:10:53;;;;;;;7.00;1.73;;;;;;;16.94;47.62;102089.91;5069508;28;20037;-71
2023/10/17 02:13:21;;;;;;;2.63;1.47;;;;;;;16.54;48.10;102086.09;5080616;28;20024;-71
2023/10/17 02:15:50;;;;;;;2.53;1.63;;;;;;;16.63;48.39;102085.91;5088470;28;20028;-71
2023/10/17 02:18:16;;;;;;;5.20;1.60;;;;;;;16.84;47.98;102075.06;5085495;28;20029;-72
2023/10/17 02:20:47;;;;;;;3.77;1.57;;;;;;;16.14;49.32;102088.41;5071618;28;20490;-71
2023/10/17 02:23:19;;;;;;;3.50;2.17;;;;;;;16.59;48.01;102089.50;5078081;28;20501;-71
2023/10/17 02:25:45;;;;;;;4.72;1.70;;;;;;;16.56;48.16;102094.84;5076785;28;20036;-71
2023/10/17 02:28:11;;;;;;;3.53;1.73;;;;;;;17.07;47.67;102091.41;5069601;28;20151;-71
2023/10/17 02:30:36;;;;;;;2.27;1.33;;;;;;;16.90;46.92;102093.47;5071575;28;20024;-71
2023/10/17 02:33:10;;;;;;;7.70;1.40;;;;;;;16.68;47.89;102093.78;5067230;28;20483;-71
2023/10/17 02:35:42;;;;;;;3.07;1.80;;;;;;;17.24;48.21;102093.78;5069868;28;20034;-71
2023/10/17 02:38:08;;;;;;;6.33;1.67;;;;;;;17.12;47.24;102094.00;5069368;28;20498;-71
2023/10/17 02:40:34;;;;;;;2.63;1.60;;;;;;;17.02;47.53;102098.56;5069211;28;20020;-71
2023/10/17 02:43:03;;;;;;;7.93;2.20;;;;;;;17.57;46.56;102093.16;5057870;28;20044;-71
2023/10/17 02:45:29;;;;;;;3.10;1.50;;;;;;;17.40;46.52;102096.97;5070110;28;20024;-71
2023/10/17 02:50:49;;;;;;;3.73;1.10;;;;;;;17.23;46.89;102096.44;5053180;28;20094;-71
2023/10/17 02:53:14;;;;;;;1.70;1.33;;;;;;;17.08;47.07;102090.50;5059874;28;20031;-71
2023/10/17 02:55:39;;;;;;;3.43;1.40;;;;;;;17.04;47.31;102083.53;5049783;28;20468;-71
2023/10/17 02:58:05;;;;;;;4.03;1.47;;;;;;;17.21;47.09;102092.94;5049457;28;20033;-71
2023/10/17 03:00:34;;;;;;;2.97;1.73;;;;;;;17.00;48.56;102095.06;5050551;28;20464;-71
2023/10/17 03:03:00;;;;;;;7.67;1.73;;;;;;;17.11;47.62;102093.09;5058879;28;20033;-71
2023/10/17 03:05:29;;;;;;;6.33;1.20;;;;;;;17.27;46.85;102090.22;5051540;28;20121;-71
2023/10/17 03:07:54;;;;;;;4.00;1.50;;;;;;;17.28;46.77;102094.56;5067893;28;20392;-71
2023/10/17 03:10:40;;;;;;;2.60;1.43;;;;;;;16.76;47.23;102086.63;5069813;28;20021;-71
2023/10/17 03:13:22;;;;;;;3.23;1.90;;;;;;;16.91;47.50;102084.63;5064453;28;20025;-71
2023/10/17 03:16:14;;;;;;;2.03;1.40;;;;;;;16.32;48.37;102090.81;5049258;28;20028;-71
2023/10/17 03:18:39;;;;;;;5.57;1.77;;;;;;;16.74;47.94;102088.41;5050097;28;20107;-71
2023/10/17 03:21:08;;;;;;;3.93;1.30;;;;;;;16.71;47.79;102085.81;5057288;28;20190;-71
2023/10/17 03:23:34;;;;;;;4.10;1.83;;;;;;;17.07;47.35;102096.69;5070353;28;20024;-71
2023/10/17 03:26:00;;;;;;;5.27;1.50;;;;;;;17.14;46.96;102084.25;5062537;28;20119;-71
2023/10/17 03:28:33;;;;;;;2.30;1.40;;;;;;;17.19;46.65;102089.47;5065410;28;20028;-71
2023/10/17 03:30:58;;;;;;;4.03;1.58;;;;;;;17.20;47.06;102093.84;5061091;28;20028;-71
2023/10/17 03:33:27;;;;;;;4.50;1.57;;;;;;;16.53;48.25;102083.47;5072692;28;20540;-71
2023/10/17 03:38:31;;;;;;;3.77;1.60;;;;;;;16.29;48.81;102090.81;5064751;28;20119;-71
2023/10/17 03:41:06;;;;;;;2.37;1.40;;;;;;;16.42;48.71;102089.75;5073794;28;20541;-71
2023/10/17 03:43:45;;;;;;;8.87;1.70;;;;;;;16.22;48.79;102090.03;5095124;28;20023;-71
2023/10/17 03:46:15;;;;;;;1.93;1.13;;;;;;;16.13;49.13;102099.84;5079050;28;20063;-71
2023/10/17 03:48:49;;;;;;;4.17;1.60;;;;;;;16.11;49.72;102098.13;5076351;28;20396;-71
2023/10/17 03:51:21;;;;;;;3.60;1.23;;;;;;;16.62;48.80;102093.88;5074566;28;20035;-71
2023/10/17 03:53:47;;;;;;;6.15;1.70;;;;;;;16.52;49.22;102097.56;5108274;28;20020;-72
2023/10/17 04:01:41;;;;;;;3.07;1.57;;;;;;;16.49;49.24;102110.81;5109532;28;20038;-71
2023/10/17 04:04:08;;;;;;;3.03;1.20;;;;;;;16.73;48.11;102114.81;5073250;28;20036;-71
2023/10/17 04:06:40;;;;;;;4.70;1.40;;;;;;;17.23;47.73;102115.81;5086723;28;20543;-71
2023/10/17 04:09:22;;;;;;;2.85;1.40;;;;;;;16.97;47.60;102129.44;5096011;28;20130;-71
2023/10/17 04:11:56;;;;;;;1.38;1.25;;;;;;;17.02;47.15;102116.16;5095767;28;20051;-71
2023/10/17 04:14:33;;;;;;;3.60;0.93;;;;;;;16.37;48.26;102131.16;5079162;28;20441;-71
2023/10/17 04:16:59;;;;;;;4.73;1.47;;;;;;;16.05;49.55;102124.56;5092833;28;20032;-71
2023/10/17 04:19:26;;;;;;;2.43;1.33;;;;;;;15.92;49.58;102117.69;5075271;28;20020;-72
2023/10/17 04:24:26;;;;;;;6.00;1.60;;;;;;;15.82;49.90;102121.31;5113037;28;20039;-71
2023/10/17 04:27:05;;;;;;;2.17;1.60;;;;;;;15.87;49.80;102111.59;5077851;28;20131;-71
2023/10/17 04:29:31;;;;;;;6.07;1.50;;;;;;;16.02;49.32;102111.41;5075879;28;20077;-72
2023/10/17 04:31:57;;;;;;;4.83;1.47;;;;;;;16.30;49.13;102112.81;5074433;28;20032;-72
2023/10/17 04:34:22;;;;;;;2.83;1.70;;;;;;;16.60;48.46;102103.59;5090263;28;20077;-72
2023/10/17 04:36:51;;;;;;;3.40;1.97;;;;;;;16.09;49.25;102105.16;5095531;28;20031;-71
2023/10/17 04:44:25;;;;;;;2.47;1.73;;;;;;;15.84;50.72;102103.72;5106454;28;20042;-71
2023/10/17 04:49:44;;;;;;;3.17;1.37;;;;;;;15.75;50.88;102097.63;5069428;28;20578;-71
2023/10/17 04:52:10;;;;;;;5.73;2.10;;;;;;;16.18;49.35;102093.59;5075193;28;20467;-71
2023/10/17 04:57:04;;;;;;;3.63;1.87;;;;;;;16.35;49.60;102101.31;5098370;28;20063;-71
2023/10/17 05:07:27;;;;;;;3.20;1.90;;;;;;;15.81;50.87;102103.75;5092545;28;20516;-71
2023/10/17 06:18:32;;;;;;;3.93;1.67;;;;;;;15.04;51.69;102074.66;5101534;28;20084;-72
2023/10/17 06:26:58;;;;;;;1.43;1.33;;;;;;;15.06;52.48;102075.50;5098285;28;20046;-72
2023/10/17 06:34:38;;;;;;;3.00;1.67;;;;;;;14.24;54.52;102069.94;5098565;28;20448;-73
2023/10/17 06:37:09;;;;;;;2.97;1.80;;;;;;;14.59;53.26;102079.38;5084170;28;20543;-72
2023/10/17 06:39:37;;;;;;;4.23;1.73;;;;;;;14.57;53.44;102078.50;5079630;28;20038;-73
2023/10/17 06:42:27;;;;;;;1.70;1.60;;;;;;;15.14;52.14;102078.06;5107982;28;20093;-73
2023/10/17 06:44:53;;;;;;;4.97;2.03;;;;;;;14.93;52.42;102081.75;5092444;28;20062;-72
2023/10/17 06:47:31;;;;;;;5.73;1.80;;;;;;;14.67;51.87;102088.13;5111523;28;20016;-72
2023/10/17 06:52:40;;;;;;;4.97;1.80;;;;;;;15.31;51.28;102098.97;5089444;28;20038;-73
2023/10/17 06:55:20;;;;;;;4.23;1.90;;;;;;;14.83;52.76;102095.88;5072555;28;20046;-72
2023/10/17 06:57:49;;;;;;;1.83;1.53;;;;;;;15.25;51.31;102088.50;5073332;28;20024;-73
2023/10/17 07:02:49;;;;;;;1.93;1.40;;;;;;;15.44;50.21;102090.06;5094262;28;20039;-72
2023/10/17 07:05:14;;;;;;;3.03;1.87;;;;;;;15.18;51.24;102092.06;5084449;28;20017;-73
2023/10/17 07:07:41;;;;;;;7.13;1.63;;;;;;;15.12;51.01;102095.63;5072332;28;20027;-73
2023/10/17 07:10:16;;;;;;;5.63;2.37;;;;;;;14.92;51.66;102101.09;5075613;28;20031;-72
2023/10/17 07:12:47;;;;;;;3.60;1.87;;;;;;;14.80;52.14;102086.25;5082588;28;20016;-72
2023/10/17 07:15:18;;;;;;;3.93;2.50;;;;;;;14.97;52.04;102088.75;5085182;28;20024;-72
2023/10/17 07:17:49;;;;;;;6.03;1.77;;;;;;;15.43;51.45;102088.31;5098941;28;20068;-72
2023/10/17 07:20:30;;;;;;;5.57;2.00;;;;;;;15.17;51.75;102079.81;5072038;28;20027;-72
2023/10/17 07:22:57;;;;;;;2.50;1.97;;;;;;;14.92;52.56;102085.31;5083708;28;20532;-72
2023/10/17 07:25:23;;;;;;;5.83;2.03;;;;;;;14.67;52.54;102085.50;5084095;28;20036;-72
2023/10/17 07:27:51;;;;;;;7.50;2.40;;;;;;;15.05;52.21;102084.28;5093289;28;20020;-72
2023/10/17 07:30:34;;;;;;;3.50;1.90;;;;;;;15.37;51.38;102092.78;5099927;28;20433;-72
2023/10/17 07:33:04;;;;;;;4.70;2.25;;;;;;;15.39;51.30;102091.88;5101892;28;20462;-72
2023/10/17 07:35:30;;;;;;;4.27;2.03;;;;;;;15.14;52.03;102091.25;5083396;28;20123;-72
2023/10/17 07:37:55;;;;;;;6.10;2.70;;;;;;;15.24;51.74;102086.75;5090282;28;20146;-72
2023/10/17 07:43:07;;;;;;;4.40;2.77;;;;;;;14.98;52.88;102092.25;5101217;28;20125;-72
2023/10/17 07:45:38;;;;;;;4.83;2.93;;;;;;;15.57;52.05;102079.41;5092942;28;20028;-72
2023/10/17 07:48:19;;;;;;;5.33;2.87;;;;;;;15.41;52.01;102076.03;5097831;28;20028;-73
2023/10/17 07:50:46;;;;;;;6.33;3.47;;;;;;;15.49;51.67;102076.84;5072728;28;20028;-72
2023/10/17 07:53:11;;;;;;;7.33;3.13;;;;;;;15.24;52.61;102076.22;5072199;28;20059;-72
2023/10/17 07:55:38;;;;;;;12.80;4.40;;;;;;;15.36;53.02;102072.56;5071033;28;20104;-72
2023/10/17 07:58:07;;;;;;;6.80;3.47;;;;;;;15.77;52.19;102063.34;5090244;28;20059;-72
2023/10/17 08:00:33;;;;;;;7.67;3.43;;;;;;;15.99;51.37;102071.91;5076345;28;20398;-72
2023/10/17 08:03:40;;;;;;;6.10;3.33;;;;;;;16.61;50.26;102065.75;5075717;28;20442;-72
2023/10/17 08:06:05;;;;;;;8.13;3.53;;;;;;;15.36;52.68;102070.84;5089966;28;20036;-72
2023/10/17 08:08:35;;;;;;;10.60;3.57;;;;;;;15.36;53.51;102076.09;5079534;28;20695;-72
2023/10/17 08:11:05;;;;;;;7.23;4.10;;;;;;;15.14;53.73;102074.56;5074345;28;20115;-72
2023/10/17 08:13:32;;;;;;;10.23;4.17;;;;;;;15.58;52.94;102074.09;5093822;28;20058;-72
2023/10/17 08:16:10;;;;;;;7.57;3.83;;;;;;;15.71;52.97;102082.72;5083674;28;20032;-72
2023/10/17 08:18:41;;;;;;;8.10;4.53;;;;;;;16.63;50.99;102075.38;5090465;28;20047;-72
2023/10/17 08:24:09;;;;;;;14.50;5.10;;;;;;;16.20;52.18;102080.44;5050059;28;20492;-72
2023/10/17 08:26:40;;;;;;;17.17;5.07;;;;;;;15.99;53.04;102071.00;5083431;28;20039;-72
2023/10/17 08:29:10;;;;;;;19.87;6.33;;;;;;;16.60;51.67;102074.56;5081352;28;20060;-72
2023/10/17 08:31:36;;;;;;;13.90;4.80;;;;;;;16.34;51.50;102077.59;5088814;28;20593;-72
2023/10/17 08:36:42;;;;;;;11.93;5.80;;;;;;;16.62;51.22;102072.75;5094094;28;20567;-72
2023/10/17 08:42:05;;;;;;;12.13;6.30;;;;;;;16.48;51.65;102096.72;5109742;28;20055;-72
2023/10/17 08:44:38;;;;;;;11.30;5.67;;;;;;;17.21;50.66;102095.59;5084924;28;20114;-72
2023/10/17 08:47:03;;;;;;;13.65;5.55;;;;;;;17.10;50.10;102091.38;5083824;28;20030;-72
2023/10/17 08:49:31;;;;;;;11.03;6.00;;;;;;;16.77;51.05;102083.09;5113946;28;20020;-72
2023/10/17 08:51:57;;;;;;;16.43;6.77;;;;;;;16.84;50.52;102088.25;5093515;28;20031;-72
2023/10/17 08:54:25;;;;;;;10.63;5.37;;;;;;;17.43;49.64;102091.66;5106327;28;20091;-72
2023/10/17 08:56:53;;;;;;;17.17;7.20;;;;;;;17.20;49.91;102089.44;5080547;28;20487;-72
2023/10/17 08:59:33;;;;;;;13.93;6.80;;;;;;;17.44;49.10;102090.75;5079593;28;20024;-72
2023/10/17 09:02:14;;;;;;;16.37;6.40;;;;;;;16.97;51.16;102089.84;5092351;28;20024;-72
2023/10/17 09:04:42;;;;;;;16.00;6.73;;;;;;;17.46;50.01;102083.66;5075792;28;20043;-72
2023/10/17 09:07:08;;;;;;;14.40;6.63;;;;;;;17.89;49.18;102086.38;5092316;28;20449;-72
2023/10/17 09:09:34;;;;;;;9.77;5.67;;;;;;;17.38;49.29;102084.69;5101011;28;20047;-72
2023/10/17 09:12:01;;;;;;;16.40;6.90;;;;;;;17.07;50.11;102091.41;5094479;28;20065;-72
2023/10/17 09:14:29;;;;;;;13.37;7.10;;;;;;;16.69;50.62;102095.53;5093515;28;20032;-72
2023/10/17 09:17:10;;;;;;;14.33;6.03;;;;;;;16.40;51.09;102103.88;5113090;28;20414;-72
2023/10/17 09:19:46;;;;;;;13.53;5.67;;;;;;;16.39;51.00;102107.41;5094559;28;20033;-72
2023/10/17 09:22:14;;;;;;;16.57;6.07;;;;;;;17.28;49.40;102090.19;5074020;28;20032;-72
2023/10/17 09:24:40;;;;;;;13.53;6.20;;;;;;;17.77;48.54;102096.28;5094726;28;20106;-72
2023/10/17 09:27:09;;;;;;;12.10;5.77;;;;;;;17.70;48.75;102089.38;5093856;28;20456;-72
2023/10/17 09:29:58;;;;;;;10.87;5.60;;;;;;;18.43;47.33;102078.13;5079878;28;20034;-73
2023/10/17 09:32:38;;;;;;;11.30;5.27;;;;;;;17.47;48.55;102089.81;5082218;28;20135;-72
2023/10/17 09:35:10;;;;;;;10.80;4.90;;;;;;;17.17;49.17;102086.84;5091680;28;20544;-72
2023/10/17 09:37:38;;;;;;;14.25;5.13;;;;;;;17.48;48.67;102085.44;5092635;28;20039;-72
2023/10/17 09:40:11;;;;;;;8.30;4.53;;;;;;;16.96;49.41;102085.44;5074003;28;20028;-72
2023/10/17 09:42:44;;;;;;;11.27;4.43;;;;;;;16.99;49.36;102085.38;5089774;28;20072;-72
2023/10/17 09:45:11;;;;;;;13.30;4.72;;;;;;;16.88;49.46;102085.53;5075463;28;20045;-72
2023/10/17 09:47:44;;;;;;;10.90;4.60;;;;;;;17.81;48.32;102087.38;5096194;28;20536;-73
2023/10/17 09:50:16;;;;;;;6.93;4.60;;;;;;;17.83;48.87;102081.19;5080129;28;20028;-73
2023/10/17 09:52:45;;;;;;;8.45;3.83;;;;;;;18.06;47.29;102083.38;5076283;28;20525;-72
2023/10/17 09:55:14;;;;;;;8.10;3.50;;;;;;;18.42;45.55;102086.09;5072317;28;20122;-72
2023/10/17 09:57:43;;;;;;;7.60;4.20;;;;;;;18.29;46.47;102081.09;5102527;28;20111;-72
2023/10/17 10:00:34;;;;;;;6.93;3.43;;;;;;;17.75;46.67;102076.94;5073821;28;20035;-72
2023/10/17 10:03:00;;;;;;;10.13;3.67;;;;;;;18.03;46.73;102078.16;5085756;28;20471;-73
2023/10/17 10:05:30;;;;;;;6.70;3.10;;;;;;;17.54;47.40;102074.72;5108493;28;20031;-72
2023/10/17 10:08:03;;;;;;;7.07;3.33;;;;;;;17.87;46.56;102067.00;5073875;28;20108;-72
2023/10/17 10:10:49;;;;;;;7.23;3.13;;;;;;;18.05;47.00;102061.38;5087515;28;20028;-72
2023/10/17 10:13:14;;;;;;;9.23;3.27;;;;;;;18.76;45.91;102064.13;5073058;28;20026;-72
2023/10/17 10:15:51;;;;;;;5.30;2.90;;;;;;;18.63;45.09;102063.56;5087206;28;20116;-72
2023/10/17 10:18:35;;;;;;;8.87;3.20;;;;;;;18.59;45.15;102056.59;5080279;28;20564;-72
2023/10/17 10:21:03;;;;;;;7.93;3.27;;;;;;;18.33;46.30;102066.03;5085160;28;20123;-72
2023/10/17 10:23:39;;;;;;;7.50;2.90;;;;;;;18.70;45.07;102054.56;5080222;28;20024;-72
2023/10/17 10:26:15;;;;;;;7.03;3.00;;;;;;;18.89;44.94;102049.72;5073148;28;20476;-72
2023/10/17 10:28:44;;;;;;;3.72;2.58;;;;;;;18.20;45.67;102048.69;5090427;28;20136;-72
2023/10/17 10:31:29;;;;;;;5.37;3.27;;;;;;;18.41;45.19;102037.59;5072570;28;20041;-72
2023/10/17 10:33:58;;;;;;;3.87;2.50;;;;;;;19.30;44.48;102039.78;5100461;28;20509;-72
2023/10/17 10:36:24;;;;;;;7.60;2.30;;;;;;;18.41;45.45;102042.91;5083507;28;20043;-72
2023/10/17 10:38:54;;;;;;;4.10;2.33;;;;;;;19.48;43.89;102049.00;5088100;28;20475;-73
2023/10/17 10:41:23;;;;;;;3.47;2.08;;;;;;;19.63;42.98;102045.03;5100997;28;20048;-72
2023/10/17 10:43:50;;;;;;;5.97;2.23;;;;;;;19.57;42.77;102052.31;5077702;28;20506;-72
2023/10/17 10:46:17;;;;;;;8.30;2.22;;;;;;;19.11;43.29;102055.31;5087446;28;20470;-72
2023/10/17 10:48:47;;;;;;;4.53;2.25;;;;;;;18.94;42.77;102050.44;5095604;28;20028;-72
2023/10/17 10:51:15;;;;;;;5.90;2.35;;;;;;;19.29;42.45;102039.84;5076574;28;20020;-72
2023/10/17 10:53:41;;;;;;;6.75;2.55;;;;;;;19.45;42.86;102033.19;5081207;28;20462;-72
2023/10/17 10:56:11;;;;;;;4.57;2.35;;;;;;;19.67;42.19;102032.56;5108972;28;20088;-72
2023/10/17 10:58:47;;;;;;;3.30;1.83;;;;;;;19.27;42.87;102028.38;5072697;28;20030;-72
2023/10/17 11:01:14;;;;;;;8.40;2.30;;;;;;;19.49;42.08;102024.25;5072045;28;20031;-72
2023/10/17 11:03:44;;;;;;;2.10;1.75;;;;;;;19.67;40.93;102022.84;5072703;28;20028;-72
2023/10/17 11:06:10;;;;;;;4.82;1.95;;;;;;;19.86;41.47;102026.75;5074271;28;20043;-72
2023/10/17 11:08:41;;;;;;;7.28;1.92;;;;;;;19.41;42.15;102015.63;5099695;28;20032;-72
2023/10/17 11:11:09;;;;;;;4.57;2.07;;;;;;;19.18;41.86;102018.03;5083470;28;20023;-72
2023/10/17 11:13:37;;;;;;;3.40;2.05;;;;;;;20.03;41.45;102008.53;5075724;28;20288;-72
2023/10/17 11:16:06;;;;;;;2.58;1.80;;;;;;;19.41;42.06;102015.63;5079636;28;20035;-72
2023/10/17 11:18:38;;;;;;;5.18;2.17;;;;;;;20.04;40.66;101996.97;5057750;28;20047;-72
2023/10/17 11:21:05;;;;;;;3.00;2.03;;;;;;;19.68;40.97;102007.78;5076236;28;20141;-71
2023/10/17 11:23:33;;;;;;;4.70;2.22;;;;;;;19.25;42.22;101993.97;5071351;28;20178;-72
2023/10/17 11:26:00;;;;;;;2.85;1.75;;;;;;;19.91;41.59;102007.13;5089410;28;20039;-72
2023/10/17 11:28:29;;;;;;;4.25;2.55;;;;;;;19.65;41.29;101999.91;5089578;28;20092;-72
2023/10/17 11:30:58;;;;;;;4.78;1.80;;;;;;;20.87;40.28;101990.75;5106524;28;20168;-72
2023/10/17 11:33:37;;;;;;;5.10;2.00;;;;;;;20.58;40.01;101984.63;5083916;28;20027;-72
2023/10/17 11:36:12;;;;;;;4.28;1.60;;;;;;;19.71;40.49;101990.91;5102230;28;20070;-71
2023/10/17 11:38:40;;;;;;;3.58;1.40;;;;;;;20.03;39.71;101971.38;5074016;28;20035;-70
2023/10/17 11:41:06;;;;;;;5.43;1.80;;;;;;;20.79;39.55;101972.41;5076195;28;20027;-71
2023/10/17 11:43:36;;;;;;;2.75;1.50;;;;;;;20.70;39.25;101971.88;5090041;28;20028;-71
2023/10/17 11:46:03;;;;;;;2.40;1.80;;;;;;;20.47;38.64;101977.00;5075048;28;20479;-70
2023/10/17 11:48:31;;;;;;;3.00;1.80;;;;;;;20.57;39.32;101971.41;5074272;28;20367;-71
2023/10/17 11:51:12;;;;;;;4.47;2.03;;;;;;;20.58;38.39;101966.03;5075283;28;20028;-70
2023/10/17 11:54:08;;;;;;;4.80;2.10;;;;;;;20.91;38.06;101960.50;5079770;28;20019;-71
2023/10/17 11:56:36;;;;;;;4.43;2.25;;;;;;;20.75;37.83;101959.31;5074387;28;20028;-71
2023/10/17 11:59:05;;;;;;;2.47;1.50;;;;;;;20.55;37.60;101951.97;5075687;28;20024;-72
2023/10/17 12:01:32;;;;;;;6.00;2.40;;;;;;;20.71;38.37;101953.22;5098077;28;20368;-71
2023/10/17 12:04:05;;;;;;;6.57;1.90;;;;;;;20.21;38.48;101942.50;5077834;28;20395;-72
2023/10/17 12:06:31;;;;;;;2.25;1.50;;;;;;;21.19;36.98;101948.84;5100146;28;20072;-72
2023/10/17 12:08:56;;;;;;;4.07;2.05;;;;;;;22.09;36.53;101919.66;5107890;28;20110;-72
2023/10/17 12:11:24;;;;;;;2.92;1.70;;;;;;;21.86;37.23;101929.44;5075400;28;20513;-72
2023/10/17 12:13:51;;;;;;;3.28;1.48;;;;;;;21.51;37.17;101925.47;5077622;28;20459;-72
2023/10/17 12:16:17;;;;;;;4.53;2.00;;;;;;;21.11;37.30;101929.66;5096206;28;20457;-71
2023/10/17 12:18:44;;;;;;;2.28;1.80;;;;;;;21.67;36.41;101918.66;5093046;28;20107;-72
2023/10/17 12:21:14;;;;;;;4.78;1.80;;;;;;;21.80;36.84;101918.19;5101762;28;20024;-71
2023/10/17 12:23:43;;;;;;;1.60;1.13;;;;;;;21.54;35.87;101911.22;5099255;28;20023;-72
2023/10/17 12:26:13;;;;;;;4.20;1.27;;;;;;;22.03;35.49;101903.94;5076809;28;20035;-72
2023/10/17 12:28:41;;;;;;;4.32;1.58;;;;;;;21.39;36.30;101902.03;5083621;28;20034;-72
2023/10/17 12:31:08;;;;;;;3.60;1.85;;;;;;;20.92;36.29;101902.91;5094099;28;20061;-71
2023/10/17 12:33:33;;;;;;;3.15;1.55;;;;;;;21.38;36.13;101887.88;5080590;28;20043;-72
2023/10/17 12:35:59;;;;;;;2.75;1.52;;;;;;;21.94;34.62;101878.59;5074837;28;20024;-72
2023/10/17 12:38:25;;;;;;;2.80;1.83;;;;;;;21.34;36.68;101872.97;5091871;28;20036;-72
2023/10/17 12:40:53;;;;;;;5.50;2.00;;;;;;;21.39;36.26;101886.94;5085518;28;20068;-71
2023/10/17 12:43:19;;;;;;;3.60;1.73;;;;;;;21.45;35.30;101894.69;5087366;28;20061;-72
2023/10/17 12:45:45;;;;;;;3.63;1.70;;;;;;;20.38;38.49;101889.69;5074258;28;20027;-71
2023/10/17 12:48:11;;;;;;;2.35;1.80;;;;;;;20.72;36.85;101880.59;5101307;28;20077;-71
2023/10/17 12:50:43;;;;;;;2.72;1.80;;;;;;;21.42;35.82;101881.50;5080951;28;20020;-71
2023/10/17 12:53:10;;;;;;;3.03;1.63;;;;;;;21.09;37.01;101873.03;5100906;28;20030;-72
2023/10/17 12:55:37;;;;;;;2.80;1.48;;;;;;;21.50;36.74;101868.78;5075838;28;20032;-71
2023/10/17 12:58:02;;;;;;;4.65;1.70;;;;;;;20.46;36.81;101874.38;5091471;28;20089;-72
2023/10/17 13:00:28;;;;;;;2.28;1.60;;;;;;;21.14;36.92;101871.06;5074739;28;20027;-71
2023/10/17 13:02:54;;;;;;;2.92;1.55;;;;;;;19.95;38.42;101862.81;5073105;28;20028;-72
2023/10/17 13:05:20;;;;;;;2.05;1.63;;;;;;;20.29;37.88;101866.13;5077529;28;20019;-72
2023/10/17 13:07:45;;;;;;;3.05;1.27;;;;;;;20.27;37.98;101862.66;5076057;28;20023;-72
2023/10/17 13:10:12;;;;;;;6.25;1.75;;;;;;;20.32;37.91;101850.09;5105063;28;20066;-72
2023/10/17 13:12:39;;;;;;;4.28;2.03;;;;;;;21.05;37.08;101856.34;5086689;28;20032;-71
2023/10/17 13:15:08;;;;;;;2.60;1.83;;;;;;;20.54;37.88;101859.94;5083808;28;20028;-71
2023/10/17 13:17:35;;;;;;;4.93;1.83;;;;;;;20.56;38.03;101852.81;5083518;28;20096;-72
2023/10/17 13:20:07;;;;;;;6.85;2.25;;;;;;;19.85;38.09;101852.56;5075016;28;20030;-72
2023/10/17 13:22:37;;;;;;;3.90;2.65;;;;;;;20.23;38.50;101845.09;5094478;28;20058;-72
2023/10/17 13:25:04;;;;;;;3.80;2.03;;;;;;;20.30;37.96;101844.81;5080160;28;20437;-72
2023/10/17 13:27:29;;;;;;;4.05;1.58;;;;;;;21.08;37.17;101840.28;5073501;28;20036;-72
2023/10/17 13:29:54;;;;;;;8.80;2.42;;;;;;;20.47;37.88;101838.94;5076287;28;20497;-71
2023/10/17 13:32:23;;;;;;;3.53;2.40;;;;;;;21.51;36.67;101833.28;5081761;28;20028;-71
2023/10/17 13:34:51;;;;;;;4.72;2.00;;;;;;;21.15;36.84;101831.13;5097341;28;20027;-72
2023/10/17 13:37:16;;;;;;;4.20;2.28;;;;;;;21.22;37.03;101838.88;5079142;28;20119;-72
2023/10/17 13:39:42;;;;;;;2.83;2.00;;;;;;;20.44;38.37;101833.75;5074170;28;20108;-71
2023/10/17 13:42:09;;;;;;;5.45;2.15;;;;;;;20.53;38.42;101831.69;5086344;28;20135;-72
2023/10/17 13:44:35;;;;;;;5.22;2.10;;;;;;;20.63;37.73;101823.28;5103987;28;20035;-72
2023/10/17 13:47:00;;;;;;;3.85;2.65;;;;;;;20.81;38.48;101820.91;5072982;28;20028;-72